createdAt,value
2019-01-23T00:00:39.067Z,99614.75
2019-01-23T00:01:48.700Z,99616.44
2019-01-23T00:02:55.374Z,99614.36
2019-01-23T00:04:02.071Z,99614.32
2019-01-23T00:05:08.848Z,99611.40
2019-01-23T00:06:15.585Z,99613.07
2019-01-23T00:07:22.235Z,99609.72
2019-01-23T00:08:29.097Z,99613.84
2019-01-23T00:09:35.786Z,99615.52
2019-01-23T00:10:42.478Z,99607.58
2019-01-23T00:11:49.139Z,99616.36
2019-01-23T00:12:55.916Z,99603.77
2019-01-23T00:14:02.691Z,99606.27
2019-01-23T00:15:09.743Z,99610.08
2019-01-23T00:16:16.411Z,99603.41
2019-01-23T00:17:23.527Z,99600.07
2019-01-23T00:18:30.208Z,99599.67
2019-01-23T00:19:37.638Z,99598.41
2019-01-23T00:20:44.353Z,99595.47
2019-01-23T00:21:51.286Z,99595.48
2019-01-23T00:22:58.008Z,99592.11
2019-01-23T00:24:04.936Z,99596.33
2019-01-23T00:25:12.337Z,99587.09
2019-01-23T00:26:19.439Z,99593.35
2019-01-23T00:27:26.161Z,99587.49
2019-01-23T00:28:33.589Z,99587.52
2019-01-23T00:29:40.254Z,99584.99
2019-01-23T00:30:48.116Z,99579.95
2019-01-23T00:31:55.091Z,99575.76
2019-01-23T00:33:02.226Z,99580.39
2019-01-23T00:34:08.928Z,99579.98
2019-01-23T00:35:15.718Z,99578.70
2019-01-23T00:36:22.552Z,99579.56
2019-01-23T00:37:29.571Z,99574.95
2019-01-23T00:38:36.545Z,99573.27
2019-01-23T00:39:43.515Z,99577.88
2019-01-23T00:40:50.695Z,99574.95
2019-01-23T00:41:57.481Z,99572.01
2019-01-23T00:43:05.671Z,99578.33
2019-01-23T00:44:12.550Z,99579.98
2019-01-23T00:45:19.215Z,99575.81
2019-01-23T00:46:25.962Z,99576.64
2019-01-23T00:47:32.782Z,99571.63
2019-01-23T00:48:39.596Z,99574.55
2019-01-23T00:49:46.941Z,99572.47
2019-01-23T00:50:53.592Z,99570.77
2019-01-23T00:52:00.865Z,99570.77
2019-01-23T00:53:07.563Z,99570.75
2019-01-23T00:54:14.473Z,99569.94
2019-01-23T00:55:21.351Z,99568.66
2019-01-23T00:56:28.358Z,99575.35
2019-01-23T00:57:35.326Z,99570.76
2019-01-23T00:58:49.014Z,99571.19
2019-01-23T00:59:50.920Z,99572.86
2019-01-23T01:00:57.599Z,99567.86
2019-01-23T01:02:04.558Z,99569.95
2019-01-23T01:03:11.759Z,99575.39
2019-01-23T01:04:18.721Z,99572.88
2019-01-23T01:05:26.092Z,99572.03
2019-01-23T01:06:33.081Z,99572.86
2019-01-23T01:07:39.946Z,99570.34
2019-01-23T01:08:47.339Z,99577.00
2019-01-23T01:09:54.139Z,99570.73
2019-01-23T01:11:00.823Z,99569.06
2019-01-23T01:12:07.862Z,99565.72
2019-01-23T01:13:14.909Z,99574.95
2019-01-23T01:14:21.600Z,99568.66
2019-01-23T01:15:28.580Z,99569.09
2019-01-23T01:16:35.754Z,99566.59
2019-01-23T01:17:42.597Z,99572.89
2019-01-23T01:18:49.646Z,99574.55
2019-01-23T01:19:56.299Z,99573.33
2019-01-23T01:21:02.971Z,99567.44
2019-01-23T01:22:09.844Z,99572.89
2019-01-23T01:23:16.623Z,99570.81
2019-01-23T01:24:23.563Z,99567.44
2019-01-23T01:25:30.733Z,99571.17
2019-01-23T01:26:37.751Z,99575.78
2019-01-23T01:27:44.555Z,99571.63
2019-01-23T01:28:56.001Z,99567.84
2019-01-23T01:29:59.618Z,99567.86
2019-01-23T01:31:06.278Z,99567.85
2019-01-23T01:32:13.353Z,99568.30
2019-01-23T01:33:20.264Z,99572.91
2019-01-23T01:34:27.220Z,99570.80
2019-01-23T01:35:34.293Z,99574.16
2019-01-23T01:36:40.932Z,99567.89
2019-01-23T01:37:47.622Z,99564.95
2019-01-23T01:38:54.548Z,99565.77
2019-01-23T01:40:01.350Z,99568.72
2019-01-23T01:41:08.024Z,99567.45
2019-01-23T01:42:14.711Z,99566.58
2019-01-23T01:43:21.418Z,99564.88
2019-01-23T01:44:28.572Z,99561.55
2019-01-23T01:45:35.233Z,99561.13
2019-01-23T01:46:42.296Z,99566.19
2019-01-23T01:47:48.955Z,99562.83
2019-01-23T01:48:55.796Z,99561.57
2019-01-23T01:50:02.505Z,99560.73
2019-01-23T01:51:09.235Z,99569.55
2019-01-23T01:52:16.214Z,99564.10
2019-01-23T01:53:22.919Z,99560.73
2019-01-23T01:54:29.594Z,99559.91
2019-01-23T01:55:36.331Z,99556.55
2019-01-23T01:56:43.299Z,99561.59
2019-01-23T01:57:52.176Z,99556.98
2019-01-23T01:59:02.803Z,99556.58
2019-01-23T02:00:15.906Z,99554.05
2019-01-23T02:01:23.083Z,99557.84
2019-01-23T02:02:29.787Z,99561.63
2019-01-23T02:03:36.496Z,99553.64
2019-01-23T02:04:43.208Z,99558.25
2019-01-23T02:05:50.570Z,99551.56
2019-01-23T02:06:57.709Z,99554.50
2019-01-23T02:08:04.932Z,99554.50
2019-01-23T02:09:12.073Z,99553.22
2019-01-23T02:10:21.079Z,99550.31
2019-01-23T02:11:27.817Z,99549.03
2019-01-23T02:12:34.515Z,99543.59
2019-01-23T02:13:41.275Z,99545.70
2019-01-23T02:14:47.951Z,99545.68
2019-01-23T02:15:54.670Z,99547.77
2019-01-23T02:17:01.338Z,99552.41
2019-01-23T02:18:08.040Z,99546.53
2019-01-23T02:19:14.921Z,99550.31
2019-01-23T02:20:25.065Z,99548.20
2019-01-23T02:21:32.123Z,99541.91
2019-01-23T02:22:39.307Z,99543.60
2019-01-23T02:23:46.105Z,99540.66
2019-01-23T02:24:52.781Z,99537.72
2019-01-23T02:25:59.509Z,99544.02
2019-01-23T02:27:06.505Z,99536.04
2019-01-23T02:28:13.246Z,99538.98
2019-01-23T02:29:19.901Z,99539.80
2019-01-23T02:30:27.326Z,99536.47
2019-01-23T02:31:34.006Z,99530.19
2019-01-23T02:32:40.965Z,99533.11
2019-01-23T02:33:47.676Z,99536.48
2019-01-23T02:34:54.427Z,99533.53
2019-01-23T02:36:01.086Z,99531.84
2019-01-23T02:37:07.773Z,99527.23
2019-01-23T02:38:14.498Z,99530.59
2019-01-23T02:39:21.180Z,99531.02
2019-01-23T02:40:28.611Z,99528.92
2019-01-23T02:41:35.341Z,99529.33
2019-01-23T02:42:42.104Z,99530.17
2019-01-23T02:43:48.793Z,99528.09
2019-01-23T02:44:55.523Z,99527.25
2019-01-23T02:46:02.575Z,99524.31
2019-01-23T02:47:09.599Z,99528.48
2019-01-23T02:48:16.729Z,99532.30
2019-01-23T02:49:23.356Z,99533.11
2019-01-23T02:50:30.420Z,99528.09
2019-01-23T02:51:37.107Z,99530.19
2019-01-23T02:52:43.801Z,99528.92
2019-01-23T02:53:50.463Z,99525.98
2019-01-23T02:54:57.122Z,99529.33
2019-01-23T02:56:04.172Z,99527.24
2019-01-23T02:57:10.977Z,99523.05
2019-01-23T02:58:17.670Z,99519.27
2019-01-23T02:59:24.451Z,99527.23
2019-01-23T03:00:31.464Z,99520.95
2019-01-23T03:01:38.132Z,99518.88
2019-01-23T03:02:45.094Z,99517.20
2019-01-23T03:03:51.828Z,99518.02
2019-01-23T03:04:58.505Z,99517.59
2019-01-23T03:06:05.564Z,99517.59
2019-01-23T03:07:12.273Z,99517.60
2019-01-23T03:08:19.340Z,99519.69
2019-01-23T03:09:26.169Z,99513.82
2019-01-23T03:10:32.831Z,99514.25
2019-01-23T03:11:39.546Z,99518.88
2019-01-23T03:12:46.211Z,99516.36
2019-01-23T03:13:52.919Z,99514.66
2019-01-23T03:14:59.898Z,99516.35
2019-01-23T03:16:06.562Z,99508.81
2019-01-23T03:17:13.236Z,99508.81
2019-01-23T03:18:19.909Z,99506.70
2019-01-23T03:19:26.952Z,99503.38
2019-01-23T03:20:33.948Z,99506.29
2019-01-23T03:21:41.199Z,99498.74
2019-01-23T03:22:47.950Z,99504.63
2019-01-23T03:23:55.089Z,99494.97
2019-01-23T03:25:01.780Z,99500.02
2019-01-23T03:26:08.789Z,99498.75
2019-01-23T03:27:15.470Z,99505.47
2019-01-23T03:28:22.160Z,99503.78
2019-01-23T03:29:28.846Z,99504.18
2019-01-23T03:30:35.532Z,99502.53
2019-01-23T03:31:42.253Z,99508.38
2019-01-23T03:32:49.202Z,99502.53
2019-01-23T03:33:55.858Z,99505.03
2019-01-23T03:35:02.920Z,99501.68
2019-01-23T03:36:09.847Z,99502.95
2019-01-23T03:37:16.855Z,99506.31
2019-01-23T03:38:23.532Z,99506.30
2019-01-23T03:39:30.537Z,99507.15
2019-01-23T03:40:37.633Z,99507.55
2019-01-23T03:41:44.648Z,99511.75
2019-01-23T03:42:51.732Z,99510.89
2019-01-23T03:43:58.396Z,99507.56
2019-01-23T03:45:06.763Z,99512.58
2019-01-23T03:46:13.459Z,99511.33
2019-01-23T03:47:20.313Z,99515.08
2019-01-23T03:48:27.362Z,99509.22
2019-01-23T03:49:34.398Z,99514.25
2019-01-23T03:50:41.452Z,99512.17
2019-01-23T03:51:48.210Z,99515.52
2019-01-23T03:52:55.087Z,99511.72
2019-01-23T03:54:01.778Z,99512.98
2019-01-23T03:55:10.226Z,99511.30
2019-01-23T03:56:16.908Z,99514.65
2019-01-23T03:57:24.041Z,99518.03
2019-01-23T03:58:30.718Z,99517.59
2019-01-23T03:59:37.392Z,99522.22
2019-01-23T04:00:44.702Z,99524.73
2019-01-23T04:01:51.470Z,99518.02
2019-01-23T04:02:58.269Z,99522.22
2019-01-23T04:04:05.262Z,99514.67
2019-01-23T04:05:12.942Z,99522.62
2019-01-23T04:06:19.953Z,99519.69
2019-01-23T04:07:26.628Z,99517.61
2019-01-23T04:08:33.756Z,99515.09
2019-01-23T04:09:40.761Z,99512.16
2019-01-23T04:10:47.913Z,99515.08
2019-01-23T04:11:54.552Z,99512.99
2019-01-23T04:13:01.337Z,99516.76
2019-01-23T04:14:08.177Z,99512.56
2019-01-23T04:15:16.499Z,99507.53
2019-01-23T04:16:23.270Z,99511.30
2019-01-23T04:17:29.907Z,99518.44
2019-01-23T04:18:36.644Z,99519.28
2019-01-23T04:19:43.812Z,99518.44
2019-01-23T04:20:50.848Z,99512.16
2019-01-23T04:21:57.510Z,99519.72
2019-01-23T04:23:04.902Z,99518.86
2019-01-23T04:24:11.883Z,99518.44
2019-01-23T04:25:18.942Z,99520.13
2019-01-23T04:26:25.645Z,99517.62
2019-01-23T04:27:32.346Z,99515.50
2019-01-23T04:28:39.676Z,99513.83
2019-01-23T04:29:46.371Z,99513.83
2019-01-23T04:30:53.451Z,99517.17
2019-01-23T04:32:00.114Z,99520.13
2019-01-23T04:33:07.142Z,99522.64
2019-01-23T04:34:14.219Z,99512.98
2019-01-23T04:35:21.027Z,99515.94
2019-01-23T04:36:27.745Z,99520.53
2019-01-23T04:37:34.764Z,99516.77
2019-01-23T04:38:41.501Z,99512.13
2019-01-23T04:39:48.182Z,99511.73
2019-01-23T04:40:54.917Z,99516.34
2019-01-23T04:42:01.958Z,99517.17
2019-01-23T04:43:09.064Z,99519.69
2019-01-23T04:44:16.148Z,99512.58
2019-01-23T04:45:22.884Z,99514.66
2019-01-23T04:46:29.853Z,99516.75
2019-01-23T04:47:39.191Z,99514.23
2019-01-23T04:48:46.182Z,99512.97
2019-01-23T04:49:53.545Z,99507.52
2019-01-23T04:51:25.205Z,99519.27
2019-01-23T04:52:47.238Z,99512.13
2019-01-23T04:53:53.930Z,99516.33
2019-01-23T04:55:00.595Z,99516.75
2019-01-23T04:56:07.670Z,99515.50
2019-01-23T04:57:14.749Z,99518.01
2019-01-23T04:58:21.474Z,99518.86
2019-01-23T04:59:28.201Z,99519.27
2019-01-23T05:00:35.307Z,99521.36
2019-01-23T05:01:42.176Z,99525.12
2019-01-23T05:02:50.416Z,99520.52
2019-01-23T05:03:57.807Z,99518.02
2019-01-23T05:05:05.901Z,99523.88
2019-01-23T05:06:12.859Z,99523.03
2019-01-23T05:07:19.686Z,99528.94
2019-01-23T05:08:26.383Z,99527.67
2019-01-23T05:09:33.048Z,99528.50
2019-01-23T05:10:39.802Z,99520.95
2019-01-23T05:11:46.863Z,99525.58
2019-01-23T05:12:53.688Z,99526.84
2019-01-23T05:14:00.840Z,99524.73
2019-01-23T05:15:08.593Z,99530.19
2019-01-23T05:16:15.262Z,99524.72
2019-01-23T05:17:22.048Z,99525.58
2019-01-23T05:18:29.154Z,99528.52
2019-01-23T05:19:35.794Z,99528.91
2019-01-23T05:20:42.519Z,99526.41
2019-01-23T05:21:49.210Z,99527.67
2019-01-23T05:22:56.291Z,99528.09
2019-01-23T05:24:03.379Z,99528.91
2019-01-23T05:25:10.881Z,99523.91
2019-01-23T05:26:18.149Z,99526.41
2019-01-23T05:27:24.824Z,99530.17
2019-01-23T05:28:32.111Z,99523.07
2019-01-23T05:29:38.848Z,99531.02
2019-01-23T05:30:45.576Z,99529.77
2019-01-23T05:31:52.267Z,99528.91
2019-01-23T05:32:58.955Z,99529.77
2019-01-23T05:34:06.291Z,99532.70
2019-01-23T05:35:13.381Z,99537.73
2019-01-23T05:36:20.436Z,99538.15
2019-01-23T05:37:27.112Z,99538.16
2019-01-23T05:38:34.061Z,99536.04
2019-01-23T05:39:41.040Z,99538.16
2019-01-23T05:40:48.414Z,99541.50
2019-01-23T05:41:55.168Z,99544.02
2019-01-23T05:43:01.891Z,99538.13
2019-01-23T05:44:08.937Z,99538.56
2019-01-23T05:45:16.199Z,99537.73
2019-01-23T05:46:22.913Z,99536.06
2019-01-23T05:47:29.562Z,99540.24
2019-01-23T05:48:36.323Z,99539.80
2019-01-23T05:49:43.531Z,99541.92
2019-01-23T05:50:50.180Z,99535.61
2019-01-23T05:51:56.917Z,99537.73
2019-01-23T05:53:03.640Z,99538.97
2019-01-23T05:54:10.324Z,99543.57
2019-01-23T05:55:17.462Z,99544.42
2019-01-23T05:56:24.882Z,99537.72
2019-01-23T05:57:31.513Z,99541.50
2019-01-23T05:58:38.202Z,99539.38
2019-01-23T05:59:44.980Z,99538.13
2019-01-23T06:00:51.632Z,99543.97
2019-01-23T06:01:58.685Z,99539.38
2019-01-23T06:03:07.047Z,99543.15
2019-01-23T06:04:14.087Z,99535.59
2019-01-23T06:05:21.716Z,99536.44
2019-01-23T06:06:28.755Z,99540.20
2019-01-23T06:07:35.479Z,99540.20
2019-01-23T06:08:42.163Z,99538.53
2019-01-23T06:09:49.171Z,99540.19
2019-01-23T06:10:55.938Z,99543.98
2019-01-23T06:12:03.040Z,99538.94
2019-01-23T06:13:09.696Z,99542.28
2019-01-23T06:14:16.756Z,99545.22
2019-01-23T06:15:23.592Z,99543.94
2019-01-23T06:16:30.372Z,99550.22
2019-01-23T06:17:37.384Z,99548.98
2019-01-23T06:18:44.107Z,99548.98
2019-01-23T06:19:51.129Z,99556.08
2019-01-23T06:20:57.961Z,99551.87
2019-01-23T06:22:04.870Z,99554.81
2019-01-23T06:23:11.919Z,99558.17
2019-01-23T06:24:18.982Z,99554.83
2019-01-23T06:25:25.660Z,99556.94
2019-01-23T06:26:32.726Z,99555.25
2019-01-23T06:27:39.468Z,99558.19
2019-01-23T06:28:46.667Z,99561.11
2019-01-23T06:29:53.476Z,99558.16
2019-01-23T06:31:00.574Z,99559.84
2019-01-23T06:32:07.455Z,99556.03
2019-01-23T06:33:14.531Z,99558.13
2019-01-23T06:34:21.201Z,99561.50
2019-01-23T06:35:28.929Z,99554.80
2019-01-23T06:36:35.640Z,99558.14
2019-01-23T06:37:42.373Z,99560.64
2019-01-23T06:38:49.067Z,99558.59
2019-01-23T06:39:55.775Z,99562.73
2019-01-23T06:41:02.512Z,99561.09
2019-01-23T06:42:09.226Z,99556.05
2019-01-23T06:43:16.247Z,99557.28
2019-01-23T06:44:23.296Z,99558.53
2019-01-23T06:45:30.004Z,99557.69
2019-01-23T06:46:36.705Z,99561.87
2019-01-23T06:47:44.025Z,99563.13
2019-01-23T06:48:51.062Z,99562.31
2019-01-23T06:49:58.927Z,99564.41
2019-01-23T06:51:05.941Z,99562.73
2019-01-23T06:52:12.627Z,99567.75
2019-01-23T06:53:19.579Z,99561.89
2019-01-23T06:54:26.250Z,99560.22
2019-01-23T06:55:33.406Z,99559.38
2019-01-23T06:56:40.087Z,99563.96
2019-01-23T06:57:47.106Z,99563.56
2019-01-23T06:58:53.865Z,99568.99
2019-01-23T07:00:00.895Z,99560.63
2019-01-23T07:01:07.582Z,99564.40
2019-01-23T07:02:14.344Z,99561.88
2019-01-23T07:03:21.009Z,99558.96
2019-01-23T07:04:27.723Z,99558.97
2019-01-23T07:05:34.383Z,99562.75
2019-01-23T07:06:41.088Z,99560.64
2019-01-23T07:07:47.908Z,99564.40
2019-01-23T07:08:54.547Z,99568.17
2019-01-23T07:10:01.296Z,99564.39
2019-01-23T07:11:07.967Z,99569.84
2019-01-23T07:12:14.744Z,99576.11
2019-01-23T07:13:21.770Z,99568.13
2019-01-23T07:14:28.737Z,99571.05
2019-01-23T07:15:35.406Z,99571.87
2019-01-23T07:16:42.509Z,99577.77
2019-01-23T07:17:49.249Z,99578.17
2019-01-23T07:18:56.030Z,99576.12
2019-01-23T07:20:02.707Z,99575.70
2019-01-23T07:21:09.744Z,99574.44
2019-01-23T07:22:17.061Z,99573.20
2019-01-23T07:23:23.784Z,99571.96
2019-01-23T07:24:30.505Z,99575.71
2019-01-23T07:25:37.177Z,99571.95
2019-01-23T07:26:44.140Z,99577.82
2019-01-23T07:27:51.327Z,99574.87
2019-01-23T07:28:58.023Z,99579.48
2019-01-23T07:30:05.828Z,99579.91
2019-01-23T07:31:12.653Z,99580.72
2019-01-23T07:32:19.345Z,99579.45
2019-01-23T07:33:26.197Z,99580.30
2019-01-23T07:34:33.207Z,99586.20
2019-01-23T07:35:39.960Z,99590.39
2019-01-23T07:36:46.616Z,99576.56
2019-01-23T07:37:53.663Z,99579.50
2019-01-23T07:39:00.386Z,99581.61
2019-01-23T07:40:08.588Z,99579.50
2019-01-23T07:41:15.653Z,99592.92
2019-01-23T07:42:22.297Z,99590.79
2019-01-23T07:43:29.293Z,99591.66
2019-01-23T07:44:35.989Z,99592.91
2019-01-23T07:45:42.758Z,99594.14
2019-01-23T07:46:49.471Z,99591.20
2019-01-23T07:47:56.242Z,99593.70
2019-01-23T07:49:02.973Z,99595.39
2019-01-23T07:50:11.339Z,99597.47
2019-01-23T07:51:18.377Z,99600.01
2019-01-23T07:52:25.054Z,99597.50
2019-01-23T07:53:32.075Z,99599.58
2019-01-23T07:54:38.845Z,99599.14
2019-01-23T07:55:46.355Z,99600.43
2019-01-23T07:56:53.012Z,99596.66
2019-01-23T07:58:00.061Z,99599.58
2019-01-23T07:59:07.056Z,99602.52
2019-01-23T08:00:17.299Z,99601.27
2019-01-23T08:01:24.282Z,99599.59
2019-01-23T08:02:31.011Z,99600.42
2019-01-23T08:03:38.064Z,99598.34
2019-01-23T08:04:44.761Z,99604.62
2019-01-23T08:05:51.420Z,99604.59
2019-01-23T08:06:58.103Z,99603.34
2019-01-23T08:08:05.656Z,99603.36
2019-01-23T08:09:12.395Z,99597.08
2019-01-23T08:10:19.882Z,99605.89
2019-01-23T08:11:26.981Z,99603.78
2019-01-23T08:12:34.039Z,99605.45
2019-01-23T08:13:41.159Z,99610.50
2019-01-23T08:14:48.119Z,99606.73
2019-01-23T08:15:55.209Z,99605.88
2019-01-23T08:17:01.846Z,99608.38
2019-01-23T08:18:09.042Z,99602.13
2019-01-23T08:19:15.729Z,99600.88
2019-01-23T08:20:23.408Z,99602.13
2019-01-23T08:21:30.115Z,99602.55
2019-01-23T08:22:37.128Z,99599.63
2019-01-23T08:23:43.874Z,99604.20
2019-01-23T08:24:51.531Z,99602.48
2019-01-23T08:25:58.253Z,99601.23
2019-01-23T08:27:07.158Z,99603.72
2019-01-23T08:28:13.773Z,99601.61
2019-01-23T08:29:20.819Z,99604.94
2019-01-23T08:30:28.039Z,99604.55
2019-01-23T08:31:34.724Z,99600.37
2019-01-23T08:32:41.749Z,99605.79
2019-01-23T08:33:48.827Z,99600.30
2019-01-23T08:34:55.488Z,99601.59
2019-01-23T08:36:02.247Z,99605.78
2019-01-23T08:37:09.256Z,99605.36
2019-01-23T08:38:16.464Z,99609.09
2019-01-23T08:39:23.403Z,99610.80
2019-01-23T08:40:30.159Z,99608.66
2019-01-23T08:41:37.195Z,99607.41
2019-01-23T08:42:43.912Z,99605.75
2019-01-23T08:43:50.961Z,99602.81
2019-01-23T08:44:57.612Z,99614.55
2019-01-23T08:46:04.677Z,99613.73
2019-01-23T08:47:11.345Z,99612.92
2019-01-23T08:48:18.048Z,99616.28
2019-01-23T08:49:24.908Z,99619.59
2019-01-23T08:50:42.518Z,99619.61
2019-01-23T08:51:49.285Z,99615.45
2019-01-23T08:52:55.976Z,99620.06
2019-01-23T08:54:02.671Z,99623.82
2019-01-23T08:55:09.474Z,99621.75
2019-01-23T08:56:16.843Z,99624.31
2019-01-23T08:57:23.926Z,99628.91
2019-01-23T08:58:30.667Z,99632.25
2019-01-23T08:59:37.390Z,99631.00
2019-01-23T09:00:46.051Z,99629.79
2019-01-23T09:01:52.470Z,99636.47
2019-01-23T09:02:59.210Z,99636.90
2019-01-23T09:04:06.083Z,99639.88
2019-01-23T09:05:13.202Z,99641.98
2019-01-23T09:06:20.263Z,99645.75
2019-01-23T09:07:26.940Z,99640.72
2019-01-23T09:08:37.627Z,99644.05
2019-01-23T09:09:42.087Z,99642.77
2019-01-23T09:10:49.271Z,99646.95
2019-01-23T09:11:56.350Z,99648.22
2019-01-23T09:13:03.460Z,99648.22
2019-01-23T09:14:10.129Z,99652.00
2019-01-23T09:15:17.438Z,99644.50
2019-01-23T09:16:24.153Z,99649.95
2019-01-23T09:17:30.812Z,99649.55
2019-01-23T09:18:37.496Z,99648.28
2019-01-23T09:19:44.193Z,99652.48
2019-01-23T09:20:50.925Z,99645.80
2019-01-23T09:21:57.954Z,99649.61
2019-01-23T09:23:05.153Z,99650.45
2019-01-23T09:24:12.212Z,99652.97
2019-01-23T09:25:21.687Z,99651.73
2019-01-23T09:26:28.667Z,99656.74
2019-01-23T09:27:35.371Z,99652.55
2019-01-23T09:28:42.443Z,99655.91
2019-01-23T09:29:49.126Z,99649.63
2019-01-23T09:31:34.039Z,99654.66
2019-01-23T09:33:24.086Z,99654.66
2019-01-23T09:35:24.412Z,99655.06
2019-01-23T09:37:25.112Z,99653.81
2019-01-23T09:39:24.229Z,99661.78
2019-01-23T09:41:34.399Z,99665.98
2019-01-23T09:43:59.329Z,99668.52
2019-01-23T09:46:36.523Z,99667.27
2019-01-23T09:47:54.523Z,99668.94
2019-01-23T09:50:13.006Z,99671.45
2019-01-23T09:52:27.829Z,99670.64
2019-01-23T09:53:51.999Z,99675.22
2019-01-23T09:54:59.004Z,99672.70
2019-01-23T09:56:06.401Z,99673.57
2019-01-23T09:57:13.469Z,99679.42
2019-01-23T09:58:20.128Z,99681.13
2019-01-23T09:59:26.972Z,99676.09
2019-01-23T10:00:33.651Z,99668.95
2019-01-23T10:01:40.674Z,99671.91
2019-01-23T10:02:47.382Z,99673.56
2019-01-23T10:03:54.058Z,99676.50
2019-01-23T10:05:00.963Z,99677.78
2019-01-23T10:06:07.646Z,99673.60
2019-01-23T10:07:14.325Z,99675.67
2019-01-23T10:08:20.980Z,99676.09
2019-01-23T10:09:27.674Z,99679.89
2019-01-23T10:10:34.672Z,99674.44
2019-01-23T10:11:41.437Z,99677.78
2019-01-23T10:12:48.103Z,99678.20
2019-01-23T10:13:54.812Z,99673.58
2019-01-23T10:15:01.551Z,99671.49
2019-01-23T10:16:17.493Z,99677.77
2019-01-23T10:17:24.145Z,99681.55
2019-01-23T10:18:31.186Z,99684.52
2019-01-23T10:19:37.870Z,99680.31
2019-01-23T10:20:44.582Z,99687.02
2019-01-23T10:21:51.429Z,99679.06
2019-01-23T10:22:58.125Z,99681.98
2019-01-23T10:24:04.816Z,99689.95
2019-01-23T10:25:11.973Z,99684.08
2019-01-23T10:26:18.929Z,99687.02
2019-01-23T10:27:25.668Z,99681.57
2019-01-23T10:28:32.327Z,99688.67
2019-01-23T10:29:39.053Z,99688.28
2019-01-23T10:30:45.720Z,99689.11
2019-01-23T10:31:52.382Z,99689.52
2019-01-23T10:32:59.071Z,99690.78
2019-01-23T10:34:06.161Z,99693.30
2019-01-23T10:35:14.206Z,99688.27
2019-01-23T10:36:20.871Z,99689.94
2019-01-23T10:37:27.588Z,99689.94
2019-01-23T10:38:34.558Z,99693.72
2019-01-23T10:39:41.625Z,99684.92
2019-01-23T10:40:48.732Z,99688.27
2019-01-23T10:41:55.396Z,99688.67
2019-01-23T10:43:02.545Z,99688.68
2019-01-23T10:44:09.295Z,99689.10
2019-01-23T10:45:16.574Z,99689.09
2019-01-23T10:46:23.571Z,99683.22
2019-01-23T10:47:30.410Z,99690.34
2019-01-23T10:48:38.029Z,99689.94
2019-01-23T10:49:45.731Z,99689.94
2019-01-23T10:50:52.432Z,99688.25
2019-01-23T10:51:59.159Z,99694.97
2019-01-23T10:53:06.020Z,99693.30
2019-01-23T10:54:12.697Z,99691.63
2019-01-23T10:55:19.683Z,99697.51
2019-01-23T10:56:26.789Z,99696.68
2019-01-23T10:57:33.553Z,99692.45
2019-01-23T10:58:40.640Z,99693.73
2019-01-23T10:59:47.912Z,99690.38
2019-01-23T11:00:54.568Z,99694.97
2019-01-23T11:02:01.229Z,99697.09
2019-01-23T11:03:10.147Z,99692.89
2019-01-23T11:04:16.822Z,99698.75
2019-01-23T11:05:25.982Z,99695.41
2019-01-23T11:06:32.644Z,99696.23
2019-01-23T11:07:39.331Z,99692.47
2019-01-23T11:08:46.775Z,99694.56
2019-01-23T11:09:54.367Z,99694.97
2019-01-23T11:11:01.679Z,99695.39
2019-01-23T11:12:08.406Z,99698.77
2019-01-23T11:13:15.812Z,99691.64
2019-01-23T11:14:22.528Z,99693.30
2019-01-23T11:15:29.175Z,99697.92
2019-01-23T11:16:36.076Z,99692.88
2019-01-23T11:17:42.865Z,99690.39
2019-01-23T11:18:49.865Z,99695.41
2019-01-23T11:19:57.242Z,99694.16
2019-01-23T11:21:03.920Z,99694.15
2019-01-23T11:22:10.868Z,99694.58
2019-01-23T11:23:17.720Z,99691.20
2019-01-23T11:24:24.733Z,99695.81
2019-01-23T11:25:31.510Z,99694.16
2019-01-23T11:26:38.385Z,99694.58
2019-01-23T11:27:46.090Z,99692.87
2019-01-23T11:28:53.166Z,99694.15
2019-01-23T11:29:59.810Z,99699.19
2019-01-23T11:31:06.745Z,99702.10
2019-01-23T11:32:13.407Z,99701.28
2019-01-23T11:33:20.186Z,99701.70
2019-01-23T11:34:26.896Z,99700.87
2019-01-23T11:35:33.621Z,99700.44
2019-01-23T11:36:40.648Z,99700.02
2019-01-23T11:37:47.624Z,99696.25
2019-01-23T11:38:54.336Z,99695.41
2019-01-23T11:40:01.057Z,99703.38
2019-01-23T11:41:08.074Z,99702.13
2019-01-23T11:42:14.763Z,99701.71
2019-01-23T11:43:21.448Z,99701.68
2019-01-23T11:44:28.195Z,99695.41
2019-01-23T11:45:34.835Z,99703.39
2019-01-23T11:46:42.106Z,99697.50
2019-01-23T11:47:48.877Z,99697.52
2019-01-23T11:48:55.686Z,99698.33
2019-01-23T11:50:03.029Z,99705.47
2019-01-23T11:51:09.787Z,99703.80
2019-01-23T11:52:17.185Z,99701.69
2019-01-23T11:53:23.858Z,99704.20
2019-01-23T11:54:30.832Z,99707.56
2019-01-23T11:55:37.522Z,99705.90
2019-01-23T11:56:44.613Z,99715.56
2019-01-23T11:57:51.581Z,99714.72
2019-01-23T11:58:58.550Z,99714.30
2019-01-23T12:00:07.532Z,99719.74
2019-01-23T12:01:14.708Z,99720.98
2019-01-23T12:02:22.745Z,99715.55
2019-01-23T12:03:29.819Z,99716.81
2019-01-23T12:04:36.807Z,99718.06
2019-01-23T12:05:43.596Z,99715.12
2019-01-23T12:06:50.245Z,99716.38
2019-01-23T12:07:57.355Z,99723.09
2019-01-23T12:09:05.746Z,99723.52
2019-01-23T12:10:17.459Z,99724.80
2019-01-23T12:11:24.134Z,99724.77
2019-01-23T12:12:31.232Z,99724.38
2019-01-23T12:13:38.231Z,99729.39
2019-01-23T12:14:45.043Z,99720.98
2019-01-23T12:15:52.102Z,99724.77
2019-01-23T12:16:58.796Z,99728.55
2019-01-23T12:18:05.534Z,99723.10
2019-01-23T12:19:12.703Z,99722.67
2019-01-23T12:20:19.900Z,99726.03
2019-01-23T12:21:26.583Z,99727.70
2019-01-23T12:22:33.276Z,99731.90
2019-01-23T12:23:39.938Z,99726.02
2019-01-23T12:24:46.649Z,99724.78
2019-01-23T12:25:53.645Z,99732.75
2019-01-23T12:27:00.716Z,99729.80
2019-01-23T12:28:07.529Z,99736.13
2019-01-23T12:29:14.584Z,99736.53
2019-01-23T12:30:25.753Z,99730.66
2019-01-23T12:31:35.167Z,99736.94
2019-01-23T12:32:40.846Z,99733.17
2019-01-23T12:33:47.644Z,99731.92
2019-01-23T12:34:54.650Z,99738.64
2019-01-23T12:36:01.630Z,99729.81
2019-01-23T12:37:08.609Z,99734.45
2019-01-23T12:38:15.719Z,99732.32
2019-01-23T12:39:22.767Z,99734.02
2019-01-23T12:40:29.454Z,99736.13
2019-01-23T12:41:36.118Z,99733.61
2019-01-23T12:42:42.831Z,99734.44
2019-01-23T12:43:49.941Z,99738.21
2019-01-23T12:44:56.916Z,99733.16
2019-01-23T12:46:03.752Z,99736.13
2019-01-23T12:47:10.453Z,99739.05
2019-01-23T12:48:17.157Z,99737.38
2019-01-23T12:49:24.234Z,99736.09
2019-01-23T12:50:32.615Z,99735.67
2019-01-23T12:51:39.290Z,99737.78
2019-01-23T12:52:46.110Z,99736.50
2019-01-23T12:53:52.769Z,99737.35
2019-01-23T12:54:59.439Z,99739.00
2019-01-23T12:56:06.683Z,99737.32
2019-01-23T12:57:13.430Z,99734.37
2019-01-23T12:58:20.513Z,99740.25
2019-01-23T12:59:27.235Z,99736.05
2019-01-23T13:00:34.370Z,99731.01
2019-01-23T13:01:42.184Z,99735.61
2019-01-23T13:02:49.431Z,99734.35
2019-01-23T13:03:56.128Z,99734.36
2019-01-23T13:05:03.097Z,99735.19
2019-01-23T13:06:10.169Z,99742.75
2019-01-23T13:07:17.151Z,99741.91
2019-01-23T13:08:23.819Z,99736.88
2019-01-23T13:09:30.496Z,99738.57
2019-01-23T13:10:37.169Z,99736.88
2019-01-23T13:11:43.936Z,99737.70
2019-01-23T13:12:50.812Z,99735.19
2019-01-23T13:13:57.478Z,99738.55
2019-01-23T13:15:05.067Z,99737.25
2019-01-23T13:16:11.909Z,99743.13
2019-01-23T13:17:18.935Z,99731.34
2019-01-23T13:18:25.623Z,99734.30